createdAt,value
2022-08-16T00:02:12.808Z,18.38
2022-08-16T00:04:40.450Z,18.31
2022-08-16T00:07:07.550Z,18.31
2022-08-16T00:09:36.577Z,18.38
2022-08-16T00:12:05.393Z,18.31
2022-08-16T00:14:34.453Z,18.32
2022-08-16T00:17:18.329Z,18.33
2022-08-16T00:19:49.763Z,18.33
2022-08-16T00:22:24.912Z,18.26
2022-08-16T00:24:54.866Z,18.25
2022-08-16T00:27:22.090Z,18.29
2022-08-16T00:30:00.630Z,18.22
2022-08-16T00:32:36.924Z,18.17
2022-08-16T00:35:13.301Z,18.17
2022-08-16T00:37:57.567Z,18.21
2022-08-16T00:40:36.626Z,18.17
2022-08-16T00:43:19.104Z,18.12
2022-08-16T00:45:58.350Z,18.09
2022-08-16T00:48:30.937Z,18.12
2022-08-16T00:50:59.813Z,18.14
2022-08-16T00:53:26.888Z,17.97
2022-08-16T00:56:05.281Z,17.97
2022-08-16T00:58:35.337Z,17.89
2022-08-16T01:01:03.229Z,17.96
2022-08-16T01:03:41.695Z,17.96
2022-08-16T01:06:40.650Z,17.83
2022-08-16T01:09:00.085Z,17.82
2022-08-16T01:11:29.678Z,17.81
2022-08-16T01:14:02.256Z,17.86
2022-08-16T01:16:34.297Z,17.78
2022-08-16T01:19:07.407Z,17.74
2022-08-16T01:21:44.216Z,17.66
2022-08-16T01:24:51.775Z,17.63
2022-08-16T01:27:15.135Z,17.68
2022-08-16T01:29:56.792Z,17.63
2022-08-16T01:32:33.708Z,17.61
2022-08-16T01:35:08.420Z,17.58
2022-08-16T01:37:53.949Z,17.60
2022-08-16T01:40:25.588Z,17.55
2022-08-16T01:42:58.197Z,17.53
2022-08-16T01:45:39.562Z,17.62
2022-08-16T01:48:20.103Z,17.62
2022-08-16T01:51:08.927Z,17.62
2022-08-16T01:53:40.741Z,17.57
2022-08-16T01:56:22.080Z,17.49
2022-08-16T01:58:54.868Z,17.57
2022-08-16T02:01:26.027Z,17.63
2022-08-16T02:03:53.460Z,17.51
2022-08-16T02:06:34.252Z,17.52
2022-08-16T02:09:05.133Z,17.53
2022-08-16T02:11:47.584Z,17.52
2022-08-16T02:14:21.569Z,17.42
2022-08-16T02:16:48.859Z,17.44
2022-08-16T02:19:18.597Z,17.45
2022-08-16T02:22:09.170Z,17.46
2022-08-16T02:24:42.367Z,17.47
2022-08-16T02:27:15.390Z,17.49
2022-08-16T02:29:49.440Z,17.43
2022-08-16T02:32:50.007Z,17.35
2022-08-16T02:35:18.768Z,17.37
2022-08-16T02:37:52.540Z,17.27
2022-08-16T02:40:22.438Z,17.29
2022-08-16T02:42:52.030Z,17.32
2022-08-16T02:45:20.676Z,17.28
2022-08-16T02:48:00.174Z,17.30
2022-08-16T02:50:55.159Z,17.27
2022-08-16T02:53:26.421Z,17.30
2022-08-16T02:55:54.105Z,17.32
2022-08-16T02:58:25.822Z,17.32
2022-08-16T03:00:56.001Z,17.35
2022-08-16T03:03:23.542Z,17.33
2022-08-16T03:05:52.598Z,17.40
2022-08-16T03:08:51.238Z,17.46
2022-08-16T03:11:16.629Z,17.42
2022-08-16T03:13:48.143Z,17.43
2022-08-16T03:16:37.792Z,17.44
2022-08-16T03:19:07.641Z,17.45
2022-08-16T03:21:37.981Z,17.48
2022-08-16T03:24:29.038Z,17.54
2022-08-16T03:26:53.633Z,17.58
2022-08-16T03:29:30.163Z,17.61
2022-08-16T03:31:59.217Z,17.59
2022-08-16T03:34:26.600Z,17.65
2022-08-16T03:36:53.904Z,17.75
2022-08-16T03:39:20.999Z,17.70
2022-08-16T03:41:50.313Z,17.77
2022-08-16T03:44:43.466Z,17.69
2022-08-16T03:47:10.287Z,17.75
2022-08-16T03:49:37.620Z,17.73
2022-08-16T03:52:06.028Z,17.77
2022-08-16T03:54:32.902Z,17.76
2022-08-16T03:57:02.953Z,17.76
2022-08-16T03:59:32.436Z,17.82
2022-08-16T04:02:01.163Z,17.77
2022-08-16T04:04:33.414Z,17.71
2022-08-16T04:07:02.749Z,17.65
2022-08-16T04:09:35.605Z,17.58
2022-08-16T04:12:03.393Z,17.55
2022-08-16T04:14:38.169Z,17.46
2022-08-16T04:17:15.634Z,17.45
2022-08-16T04:19:46.901Z,17.49
2022-08-16T04:22:17.197Z,17.51
2022-08-16T04:24:55.102Z,17.46
2022-08-16T04:27:24.453Z,17.48
2022-08-16T04:29:52.364Z,17.52
2022-08-16T04:32:19.769Z,17.56
2022-08-16T04:34:50.785Z,17.51
2022-08-16T04:37:18.591Z,17.49
2022-08-16T04:39:57.404Z,17.42
2022-08-16T04:42:25.871Z,17.52
2022-08-16T04:44:56.029Z,17.60
2022-08-16T04:47:31.501Z,17.64
2022-08-16T04:50:01.464Z,17.61
2022-08-16T04:52:33.990Z,17.62
2022-08-16T04:55:07.938Z,17.55
2022-08-16T04:57:35.814Z,17.44
2022-08-16T05:00:32.657Z,17.38
2022-08-16T05:02:55.638Z,17.33
2022-08-16T05:05:24.633Z,17.31
2022-08-16T05:07:58.430Z,17.48
2022-08-16T05:10:27.958Z,17.52
2022-08-16T05:12:55.051Z,17.58
2022-08-16T05:15:23.641Z,17.63
2022-08-16T05:17:58.674Z,17.68
2022-08-16T05:20:39.403Z,17.68
2022-08-16T05:23:15.030Z,17.74
2022-08-16T05:25:47.852Z,17.80
2022-08-16T05:28:15.885Z,17.84
2022-08-16T05:30:43.215Z,17.85
2022-08-16T05:33:16.937Z,17.86
2022-08-16T05:35:46.938Z,18.00
2022-08-16T05:38:40.041Z,18.04
2022-08-16T05:41:07.503Z,18.11
2022-08-16T05:43:43.796Z,18.10
2022-08-16T05:46:28.966Z,18.32
2022-08-16T05:49:03.137Z,18.75
2022-08-16T05:51:37.653Z,19.21
2022-08-16T05:54:06.697Z,20.20
2022-08-16T05:56:35.930Z,21.32
2022-08-16T05:59:06.119Z,22.04
2022-08-16T06:01:38.237Z,22.00
2022-08-16T06:04:13.104Z,22.54
2022-08-16T06:06:55.835Z,21.59
2022-08-16T06:09:23.555Z,20.83
2022-08-16T06:11:51.081Z,20.43
2022-08-16T06:14:18.571Z,20.09
2022-08-16T06:16:50.996Z,20.06
2022-08-16T06:19:18.027Z,20.14
2022-08-16T06:21:45.367Z,20.08
2022-08-16T06:24:53.283Z,19.95
2022-08-16T06:27:10.237Z,19.79
2022-08-16T06:29:37.083Z,19.93
2022-08-16T06:32:04.926Z,20.00
2022-08-16T06:34:57.292Z,19.98
2022-08-16T06:37:21.338Z,19.95
2022-08-16T06:39:50.447Z,20.07
2022-08-16T06:42:18.284Z,20.18
2022-08-16T06:44:46.886Z,20.32
2022-08-16T06:47:17.024Z,20.43
2022-08-16T06:49:52.908Z,20.75
2022-08-16T06:52:57.649Z,21.16
2022-08-16T06:55:12.806Z,21.32
2022-08-16T06:57:40.812Z,21.29
2022-08-16T07:00:24.092Z,21.30
2022-08-16T07:02:53.812Z,21.59
2022-08-16T07:05:27.394Z,21.57
2022-08-16T07:08:11.422Z,21.44
2022-08-16T07:10:41.551Z,21.49
2022-08-16T07:13:11.601Z,21.75
2022-08-16T07:15:50.751Z,22.00
2022-08-16T07:18:24.373Z,21.92
2022-08-16T07:20:53.866Z,21.58
2022-08-16T07:23:21.409Z,21.54
2022-08-16T07:26:29.445Z,21.66
2022-08-16T07:29:09.623Z,21.35
2022-08-16T07:31:37.525Z,21.48
2022-08-16T08:50:50.394Z,23.50
2022-08-16T08:53:17.899Z,23.70
2022-08-16T08:55:45.146Z,23.64
2022-08-16T08:58:13.189Z,23.52
2022-08-16T09:00:51.444Z,23.43
2022-08-16T09:26:59.432Z,25.41
2022-08-16T09:29:45.348Z,25.72
2022-08-16T09:32:13.209Z,25.53
2022-08-16T09:41:53.546Z,26.33
2022-08-16T09:45:18.447Z,25.86
2022-08-16T09:56:58.605Z,26.49
2022-08-16T09:59:45.803Z,26.35
2022-08-16T10:02:26.846Z,26.25
2022-08-16T10:04:55.466Z,25.98
2022-08-16T10:07:23.080Z,26.13
2022-08-16T10:09:55.003Z,26.07
2022-08-16T10:12:42.516Z,26.35
2022-08-16T10:15:15.582Z,26.87
2022-08-16T10:17:45.764Z,26.72
2022-08-16T10:20:31.393Z,27.01
2022-08-16T10:23:05.505Z,27.31
2022-08-16T10:27:03.678Z,27.36
2022-08-16T10:28:42.245Z,26.80
2022-08-16T10:31:16.752Z,27.06
2022-08-16T10:34:30.735Z,27.75
2022-08-16T10:37:00.132Z,27.57
2022-08-16T10:39:27.416Z,27.77
2022-08-16T10:42:08.385Z,28.16
2022-08-16T10:44:35.384Z,28.35
2022-08-16T10:47:04.234Z,28.17
2022-08-16T10:50:26.652Z,28.21
2022-08-16T10:52:58.684Z,27.94
2022-08-16T10:55:45.403Z,27.34
2022-08-16T10:58:16.906Z,26.86
2022-08-16T11:00:46.877Z,26.99
2022-08-16T11:06:05.909Z,26.71
2022-08-16T11:08:39.626Z,26.76
2022-08-16T11:11:19.675Z,26.72
2022-08-16T11:14:10.830Z,26.48
2022-08-16T11:19:33.618Z,26.02
2022-08-16T11:22:38.913Z,25.76
2022-08-16T11:26:03.897Z,25.79
2022-08-16T11:28:04.961Z,25.81
2022-08-16T11:30:39.203Z,25.79
2022-08-16T11:33:06.867Z,25.81
2022-08-16T11:38:51.457Z,25.69
2022-08-16T11:41:11.296Z,25.68
2022-08-16T11:43:41.672Z,25.67
2022-08-16T11:46:44.339Z,25.64
2022-08-16T11:49:11.212Z,25.65
2022-08-16T11:51:44.125Z,25.89
2022-08-16T11:54:20.205Z,26.42
2022-08-16T11:56:52.901Z,26.78
2022-08-16T12:12:14.904Z,27.73
2022-08-16T12:14:45.822Z,27.58
2022-08-16T12:17:14.337Z,28.38
2022-08-16T12:19:41.556Z,28.63
2022-08-16T12:22:19.188Z,28.86
2022-08-16T12:24:50.915Z,29.09
2022-08-16T12:27:23.199Z,29.18
2022-08-16T12:29:51.665Z,29.41
2022-08-16T12:32:35.977Z,29.39
2022-08-16T12:35:09.551Z,29.27
2022-08-16T12:37:36.980Z,28.98
2022-08-16T12:40:21.249Z,28.59
2022-08-16T12:43:00.682Z,28.71
2022-08-16T12:45:31.043Z,29.04
2022-08-16T12:48:33.585Z,28.88
2022-08-16T12:51:13.553Z,28.90
2022-08-16T12:53:48.038Z,29.14
2022-08-16T12:56:18.897Z,28.97
2022-08-16T12:58:51.529Z,28.64
2022-08-16T13:31:27.296Z,29.82
2022-08-16T13:33:58.784Z,29.72
2022-08-16T13:36:48.779Z,30.04
2022-08-16T13:39:17.235Z,30.03
2022-08-16T13:41:44.699Z,30.20
2022-08-16T13:44:21.908Z,30.26
2022-08-16T13:47:12.824Z,29.84
2022-08-16T13:49:41.371Z,29.83
2022-08-16T13:52:13.300Z,30.23
2022-08-16T13:54:40.530Z,29.92
2022-08-16T13:57:07.618Z,29.63
2022-08-16T13:59:38.786Z,30.07
2022-08-16T14:02:08.841Z,29.92
2022-08-16T14:04:41.101Z,30.00
2022-08-16T14:07:12.671Z,29.63
2022-08-16T14:09:47.982Z,29.42
2022-08-16T14:12:21.160Z,29.12
2022-08-16T14:14:48.982Z,29.06
2022-08-16T14:17:21.451Z,28.89
2022-08-16T14:19:50.546Z,28.46
2022-08-16T14:22:30.671Z,28.35
2022-08-16T14:24:59.844Z,28.31
2022-08-16T14:27:28.967Z,28.10
2022-08-16T14:30:01.180Z,28.18
2022-08-16T14:32:36.773Z,27.90
2022-08-16T14:35:11.529Z,27.72
2022-08-16T14:37:43.114Z,27.30
2022-08-16T14:40:20.380Z,27.07
2022-08-16T14:42:48.870Z,26.71
2022-08-16T14:45:20.628Z,26.10
2022-08-16T14:47:50.846Z,25.23
2022-08-16T14:50:21.344Z,24.57
2022-08-16T14:52:56.417Z,23.64
2022-08-16T14:55:26.035Z,23.10
2022-08-16T14:57:54.468Z,22.65
2022-08-16T15:00:32.708Z,22.43
2022-08-16T15:03:04.623Z,22.08
2022-08-16T15:05:32.546Z,22.06
2022-08-16T15:07:59.675Z,22.03
2022-08-16T15:10:29.490Z,21.83
2022-08-16T15:13:01.103Z,21.68
2022-08-16T15:15:30.176Z,21.58
2022-08-16T15:17:57.589Z,21.45
2022-08-16T15:20:29.509Z,21.41
2022-08-16T15:22:59.042Z,21.35
2022-08-16T15:25:29.616Z,21.26
2022-08-16T15:27:57.380Z,21.36
2022-08-16T15:30:57.925Z,21.29
2022-08-16T15:33:15.381Z,21.34
2022-08-16T15:35:44.998Z,21.25
2022-08-16T15:38:57.353Z,21.07
2022-08-16T15:41:01.535Z,21.11
2022-08-16T15:43:39.483Z,21.17
2022-08-16T15:46:35.183Z,21.36
2022-08-16T15:49:10.244Z,21.17
2022-08-16T15:51:41.394Z,21.37
2022-08-16T15:54:21.314Z,21.29
2022-08-16T15:57:00.340Z,21.26
2022-08-16T15:59:48.051Z,21.24
2022-08-16T16:02:16.791Z,21.29
2022-08-16T16:04:51.583Z,21.14
2022-08-16T16:07:22.198Z,21.28
2022-08-16T16:09:49.124Z,21.15
2022-08-16T16:12:50.566Z,21.11
2022-08-16T16:15:07.395Z,21.16
2022-08-16T16:30:33.114Z,21.86
2022-08-16T16:33:22.252Z,21.92
2022-08-16T16:35:56.607Z,22.09
2022-08-16T16:38:28.864Z,22.05
2022-08-16T16:40:56.233Z,22.12
2022-08-16T16:43:25.989Z,22.08
2022-08-16T16:46:01.691Z,22.24
2022-08-16T16:48:35.075Z,22.00
2022-08-16T16:51:05.100Z,21.87
2022-08-16T16:53:55.736Z,21.71
2022-08-16T16:56:27.536Z,21.70
2022-08-16T16:59:01.709Z,21.87
2022-08-16T17:01:56.659Z,22.02
2022-08-16T17:04:27.329Z,21.74
2022-08-16T17:06:59.165Z,21.65
2022-08-16T17:09:26.282Z,21.82
2022-08-16T17:11:55.377Z,21.94
2022-08-16T17:14:33.743Z,22.04
2022-08-16T17:17:05.102Z,22.05
2022-08-16T17:19:32.160Z,21.97
2022-08-16T17:21:59.427Z,21.95
2022-08-16T17:24:39.502Z,21.81
2022-08-16T17:27:07.949Z,21.90
2022-08-16T17:33:59.711Z,22.00
